Caliente, Nevada Weather observations

Data are for observation ending at time listed.
 Day   Time    Ave.   Ave.  Ave.  Vector   Max.   Stn.    Total    Solar   Ave.  
  of    of     Air    Rel.  Wind   Wind    Wind   Baro.  Precip.   Rad.    Soil  
Year   Day     Temp.  Hum.  Speed  Dir.    Gust   Pres.                    Temp. 
2016   (PST)    F      %     mph   deg.    mph     mb.     in.     W/m2     F   
------------------------------------------------------------------------------
 340    6:40   20.0    70    0.7   105      2.0   864.3    0.00       1    33.2
 340    6:50   20.0    70    0.9   110      1.8   864.5    0.00       4    33.0
 340    7:00   20.2    70    0.6    52      2.2   864.6    0.00       6    32.8
 340    7:10   20.3    69    0.3   149      1.9   864.7    0.00      10    33.0
 340    7:20   20.5    69    0.2   170      1.2   864.7    0.00      12    33.0
 340    7:30   20.1    70    1.1   119      2.6   864.7    0.00      16    32.9
 340    7:40   21.2    68    1.3    47      2.8   864.8    0.00      34    33.0
 340    7:50   21.8    66    1.2   109      2.0   864.9    0.00      46    33.0
 340    8:00   21.7    66    1.1   107      2.2   865.0    0.00      52    33.0
 340    8:10   22.2    64    1.8   108      3.1   865.0    0.00      79    32.9
 340    8:20   23.6    61    1.5   113      2.7   865.1    0.00     191    32.9
 340    8:30   25.7    56    1.7    99      2.6   865.2    0.00     212    32.9
 340    8:40   27.3    53    1.9   126      3.1   865.1    0.00     242    32.9
 340    8:50   28.3    51    1.0   161      2.2   865.2    0.00     264    32.8
 340    9:00   28.8    50    0.8   173      1.8   865.3    0.00     283    32.7
 340    9:10   30.1    48    0.3   156      1.5   865.4    0.00     301    32.8
 340    9:20   32.0    44    0.3   146      1.4   865.4    0.00     315    33.0
 340    9:30   32.7    43    1.3   112      2.3   865.4    0.00     333    32.9
 340    9:40   34.0    41    1.2   107      3.1   865.4    0.00     312    32.8
 340    9:50   35.3    39    1.4   107      2.8   865.4    0.00     363    32.9
 340   10:00   36.4    36    1.3   103      2.5   865.2    0.00     334    32.9
 340   10:10   38.1    34    1.3    72      5.3   865.2    0.00     375    33.0
 340   10:20   39.1    32    3.1    24      6.8   865.1    0.00     379    33.0
 340   10:30   40.0    31    3.3    18      6.2   864.9    0.00     396    32.9
 340   10:40   41.1    30    2.1    19      4.6   864.8    0.00     407    33.1
 340   10:50   42.5    28    2.7    26      5.6   864.7    0.00     412    33.1
 340   11:00   43.7    27    2.7    27      6.4   864.5    0.00     409    33.3
 340   11:10   44.7    26    3.0    27      6.4   864.4    0.00     373    33.5
 340   11:20   46.3    25    3.8    29      7.2   864.2    0.00     416    33.8
 340   11:30   47.2    24    2.5    27      7.5   864.1    0.00     379    34.0
 340   11:40   48.3    23    2.3     4      4.5   863.9    0.00     365    34.2
 340   11:50   49.1    23    1.7   355      4.3   863.8    0.00     388    34.6
 340   12:00   50.0    22    1.3   332      4.7   863.6    0.00     412    34.8
 340   12:10   51.5    21    1.0    84      2.6   863.4    0.00     386    35.0
 340   12:20   52.3    21    1.9   356      4.3   863.2    0.00     411    35.2
 340   12:30   52.6    20    1.4   131      3.6   863.1    0.00     378    35.5
 340   12:40   53.9    19    1.1   120      3.9   863.0    0.00     409    35.8
 340   12:50   54.0    17    1.4   101      4.2   862.8    0.00     381    36.0
 340   13:00   54.2    17    2.0    72      5.8   862.8    0.00     342    36.4
 340   13:10   53.8    17    2.7    96      6.4   862.7    0.00     213    36.7
 340   13:20   54.2    15    3.7   301      7.9   862.6    0.00      84    36.9
 340   13:30   54.7    14    4.6   299     11.5   862.6    0.00      55    37.2
 340   13:40   54.6    14    3.0   298      8.7   862.5    0.00      77    37.3
 340   13:50   55.0    13    4.7   312      7.7   862.5    0.00      94    37.6
 340   14:00   54.6    13    4.5   286      9.1   862.4    0.00     100    37.7
 340   14:10   54.5    13    4.8   296      9.8   862.3    0.00     108    37.9
 340   14:20   54.5    13    2.1   315      4.7   862.4    0.00      91    38.0
 340   14:30   54.4    13    3.6   250      6.8   862.4    0.00      99    38.3
 340   14:40   54.2    13    4.6   254      8.1   862.3    0.00      92    38.4
 340   14:50   54.0    14    4.3   257      6.6   862.4    0.00      84    38.5
 340   15:00   53.7    14    3.0   260      5.8   862.3    0.00      84    38.6
 340   15:10   53.7    14    2.7   262      5.1   862.2    0.00      76    38.6
 340   15:20   53.6    14    2.3   287      4.7   862.2    0.00      67    38.7
 340   15:30   53.3    14    1.1   292      2.5   862.2    0.00      55    38.8
 340   15:40   52.5    16    0.6   150      1.2   862.1    0.00      44    39.0
 340   15:50   51.7    17    0.4   142      1.2   862.1    0.00      35    38.9
 340   16:00   50.4    18    0.3   215      1.8   862.1    0.00      25    38.9
 340   16:10   48.8    21    0.2    27      1.4   862.2    0.00      14    39.1
 340   16:20   47.9    22    0.4   267      2.3   862.2    0.00       5    39.0
 340   16:30   47.5    23    1.0   277      3.0   862.2    0.00       3    39.1
 340   16:40   46.7    24    0.6   337      2.4   862.2    0.00       2    38.9
 340   16:50   47.2    24    1.5   272      7.9   862.2    0.00       0    39.0
 340   17:00   46.5    24    0.3   303      1.3   862.2    0.00       0    38.9
 340   17:10   45.5    26    0.0     0      0.0   862.1    0.00       0    39.0
 340   17:20   44.6    27    0.4   239      3.7   862.1    0.00       0    38.9
 340   17:30   44.0    27    0.2   242      1.3   862.2    0.00       0    38.7
 340   17:40   42.9    29    0.6    95      2.0   862.3    0.00       0    39.3
 340   17:50   42.9    29    0.4    60      2.6   862.3    0.00       0    38.8
 340   18:00   43.7    28    1.5    96      4.3   862.3    0.00       0    38.8
 340   18:10   43.1    29    1.1    42      3.8   862.2    0.00       0    38.9
 340   18:20   43.8    28    1.4   100      4.7   862.2    0.00       0    38.7
 340   18:30   43.5    28    2.0   102      4.3   862.3    0.00       0    38.7
 340   18:40   42.6    29    1.7   104      4.1   862.3    0.00       0    38.7
 340   18:50   41.9    30    1.2    65      4.7   862.2    0.00       0    38.6
 340   19:00   41.5    31    1.7    87      4.1   862.2    0.00       0    38.6
 340   19:10   40.2    33    0.8   114      2.6   862.3    0.00       0    38.6
 340   19:20   39.8    34    1.6    53      3.7   862.3    0.00       0    38.6
 340   19:30   39.4    35    1.1    83      3.9   862.4    0.00       0    38.5
 340   19:40   39.3    36    2.7    42      5.1   862.5    0.00       0    38.6
 340   19:50   38.6    37    2.1    52      4.4   862.6    0.00       0    38.4
 340   20:00   38.3    38    1.5    65      3.4   862.6    0.00       0    38.5
 340   20:10   38.6    37    0.8    78      3.1   862.6    0.00       0    38.4
 340   20:20   37.9    38    0.9    59      2.8   862.7    0.00       0    38.0
 340   20:30   37.0    40    0.5    67      2.3   862.6    0.00       0    38.2
 340   20:40   36.4    41    1.1   116      2.6   862.5    0.00       0    38.3
 340   20:50   35.9    42    1.1   211      3.4   862.5    0.00       0    37.9
 340   21:00   34.8    46    0.6   314      2.0   862.6    0.00       0    37.7
 340   21:10   34.4    45    1.3   103      2.8   862.6    0.00       0    37.8
 340   21:20   34.3    45    1.6    44      4.1   862.7    0.00       0    37.7
 340   21:30   34.3    46    1.4    82      4.1   862.7    0.00       0    37.8
 340   21:40   34.4    46    1.7   103      3.7   862.8    0.00       0    37.6
 340   21:50   34.4    46    1.5    54      3.9   862.9    0.00       0    37.4
 340   22:00   33.9    47    0.9    82      3.6   862.9    0.00       0    37.4
 340   22:10   33.4    48    1.8    32      3.3   862.9    0.00       0    37.5
 340   22:20   33.1    49    0.4    64      3.4   862.9    0.00       0    37.4
 340   22:30   32.6    49    0.8   106      2.1   862.9    0.00       0    37.1
 340   22:40   32.5    50    1.4    51      3.9   862.9    0.00       0    37.3
 340   22:50   32.2    51    1.6    48      3.5   862.9    0.00       0    37.3
 340   23:00   31.6    51    1.3    55      3.4   862.9    0.00       0    37.3
 340   23:10   31.2    51    1.6    24      5.0   862.8    0.00       0    37.0
 340   23:20   31.3    51    1.0     8      3.7   862.8    0.00       0    36.8
 340   23:30   30.9    52    1.8   357      4.1   862.8    0.00       0    36.6
 340   23:40   30.2    52    0.4   114      1.5   862.8    0.00       0    36.6
 340   23:50   29.5    54    1.1    30      2.9   862.6    0.00       0    36.5
 341    0:00   28.8    55    1.0    66      3.8   862.6    0.00       0    36.5
 341    0:10   28.7    55    0.9    43      4.2   862.6    0.00       0    36.3
 341    0:20   28.2    56    1.0    60      3.2   862.5    0.00       0    36.1
 341    0:30   27.6    57    0.6    68      2.3   862.5    0.00       0    36.2
 341    0:40   27.0    59    0.5    44      2.4   862.5    0.00       0    35.9
 341    0:50   26.8    59    0.2    29      2.0   862.4    0.00       0    35.9
 341    1:00   26.8    59    0.5    54      2.3   862.3    0.00       0    35.8
 341    1:10   26.9    59    0.7   101      3.0   862.4    0.00       0    35.7
 341    1:20   27.2    58    1.0    67      3.1   862.3    0.00       0    35.8
 341    1:30   27.3    58    0.7   109      3.3   862.3    0.00       0    35.6
 341    1:40   27.5    58    1.0    20      3.6   862.4    0.00       0    35.7
 341    1:50   27.7    58    0.2    36      1.1   862.4    0.00       0    35.2
 341    2:00   27.7    59    0.6    53      3.1   862.3    0.00       0    35.4
 341    2:10   27.7    59    0.6   122      1.5   862.3    0.00       0    35.3
 341    2:20   27.8    58    0.5   153      2.0   862.3    0.00       0    35.3
 341    2:30   28.2    54    2.6    33      6.8   862.2    0.00       0    35.3
 341    2:40   28.6    50    3.1    33      7.7   862.2    0.00       0    35.2
 341    2:50   28.8    48    3.0    36      6.2   862.3    0.00       0    35.1
 341    3:00   29.0    47    3.7    28      7.2   862.3    0.00       0    35.1
 341    3:10   29.0    48    3.3    31      6.4   862.3    0.00       0    35.1
 341    3:20   29.0    47    2.3    36      6.7   862.2    0.00       0    34.9
 341    3:30   28.8    48    2.6    44      6.6   862.1    0.00       0    34.9
 341    3:40   28.4    48    4.1    30      7.3   862.1    0.00       0    34.9
 341    3:50   28.3    48    3.3    32      6.6   862.1    0.00       0    34.9
 341    4:00   28.3    48    3.4    32      5.6   862.1    0.00       0    34.7
 341    4:10   28.3    47    3.8    26      7.6   862.0    0.00       0    34.7
 341    4:20   28.5    46    3.9    24      6.9   861.9    0.00       0    34.5
 341    4:30   28.6    46    2.4    35      5.9   861.9    0.00       0    34.9
 341    4:40   28.6    47    3.3    41      7.2   861.8    0.00       0    34.6
 341    4:50   28.5    49    1.3    70      3.7   861.8    0.00       0    34.6
 341    5:00   28.0    52    1.5   106      2.6   861.6    0.00       0    34.6
 341    5:10   27.9    52    0.3    89      1.3   861.6    0.00       0    34.5
 341    5:20   28.0    52    0.6    41      1.9   861.5    0.00       0    34.5
 341    5:30   28.0    52    0.0    44      2.1   861.3    0.00       0    34.5
 341    5:40   28.1    52    0.9    48      2.1   861.3    0.00       0    34.4
 341    5:50   27.9    52    0.7    98      1.8   861.4    0.00       0    34.5
 341    6:00   27.8    52    0.3    97      1.5   861.4    0.00       0    34.3
 341    6:10   27.9    51    0.9    70      3.1   861.3    0.00       0    34.5
 341    6:20   27.8    50    2.6    33      7.3   861.3    0.00       0    34.4
 341    6:30   27.4    50    3.5    21      6.1   861.2    0.00       0    34.3

Return to Caliente, Nevada graphs page.


Western Regional Climate Center,wrcc@dri.edu